Time;durP1;ratioP1;P1;durP2;ratioP2;P2;SDS_P1;SDS_P2;PMS_P1;PMS_P2;Temp;Humidity;BMP_temperature;BMP_pressure;BME280_temperature;BME280_humidity;BME280_pressure;Samples;Min_cycle;Max_cycle;Signal;HPM_P1;HPM_P2
2021/09/16 01:09:35;;;;;;;5.05;2.53;;;;;;;19.94;75.00;99615.94;1087578;54;20058;-82
2021/09/16 01:10:38;;;;;;;5.03;2.60;;;;;;;19.88;75.35;99618.69;1087729;54;20034;-81
2021/09/16 01:11:42;;;;;;;7.65;2.83;;;;;;;19.88;75.51;99621.41;1087703;54;20030;-83
2021/09/16 01:12:46;;;;;;;4.25;2.67;;;;;;;19.81;75.51;99610.56;1087692;54;20038;-82
2021/09/16 01:13:50;;;;;;;5.75;3.15;;;;;;;19.82;75.50;99617.63;1087899;54;20018;-82
2021/09/16 01:14:52;;;;;;;6.03;2.92;;;;;;;19.86;75.53;99616.22;1087819;54;20041;-81
2021/09/16 01:16:00;;;;;;;5.95;2.90;;;;;;;19.76;75.59;99607.66;1089051;46;21116;-81
2021/09/16 01:17:02;;;;;;;6.43;2.90;;;;;;;19.79;75.80;99610.78;1087744;54;20039;-81
2021/09/16 01:18:07;;;;;;;5.18;3.00;;;;;;;19.78;75.56;99609.13;1087704;54;20031;-81
2021/09/16 01:19:08;;;;;;;4.53;3.05;;;;;;;19.74;75.80;99615.19;1087873;54;20035;-82
2021/09/16 01:20:14;;;;;;;6.38;3.70;;;;;;;19.73;76.09;99614.38;1087828;54;20784;-81
2021/09/16 01:21:15;;;;;;;4.85;3.05;;;;;;;19.64;76.09;99610.22;1091471;39;20273;-81
2021/09/16 01:22:22;;;;;;;7.38;3.42;;;;;;;19.64;76.40;99612.94;1087759;54;20042;-83
2021/09/16 01:23:26;;;;;;;5.13;3.45;;;;;;;19.79;75.97;99609.94;1087758;54;20034;-83
2021/09/16 01:24:31;;;;;;;6.95;3.10;;;;;;;19.89;75.38;99607.63;1087809;54;20031;-82
2021/09/16 01:25:33;;;;;;;4.22;2.90;;;;;;;19.96;75.29;99613.00;1087859;54;20031;-82
2021/09/16 01:26:37;;;;;;;4.47;2.95;;;;;;;20.05;75.21;99611.72;1087765;54;20030;-83
2021/09/16 01:27:39;;;;;;;4.07;2.63;;;;;;;20.10;75.07;99608.34;1090776;39;20644;-80
2021/09/16 01:28:43;;;;;;;5.47;2.78;;;;;;;20.13;74.80;99613.34;1087774;54;20026;-82
2021/09/16 01:29:44;;;;;;;4.35;3.05;;;;;;;19.97;75.49;99611.97;1087710;54;20057;-83
2021/09/16 01:30:49;;;;;;;7.63;3.83;;;;;;;19.83;75.73;99608.47;1087752;54;20094;-82
2021/09/16 01:31:51;;;;;;;5.65;4.20;;;;;;;19.94;75.65;99604.25;1087789;54;20031;-81
2021/09/16 01:32:57;;;;;;;4.90;3.38;;;;;;;19.91;75.59;99605.53;1087796;54;20041;-82
2021/09/16 01:34:02;;;;;;;5.20;3.83;;;;;;;19.89;75.40;99610.31;1087873;54;20029;-82
2021/09/16 01:35:07;;;;;;;7.38;3.42;;;;;;;19.80;76.12;99612.44;1087817;54;20035;-82
2021/09/16 01:36:10;;;;;;;5.82;3.63;;;;;;;19.77;75.82;99607.44;1087776;54;20026;-84
2021/09/16 01:37:14;;;;;;;7.20;5.18;;;;;;;19.75;76.08;99612.25;1087787;54;20034;-81
2021/09/16 01:38:16;;;;;;;6.43;4.97;;;;;;;19.77;76.34;99614.75;1087723;54;20041;-82
2021/09/16 01:39:22;;;;;;;6.82;4.00;;;;;;;19.77;76.04;99621.00;1087701;54;20035;-82
2021/09/16 01:40:25;;;;;;;5.03;3.78;;;;;;;19.77;75.99;99612.06;1087807;54;20041;-81
2021/09/16 01:41:29;;;;;;;6.63;3.97;;;;;;;19.72;76.23;99611.84;1089125;39;20745;-81
2021/09/16 01:42:30;;;;;;;6.32;4.32;;;;;;;19.65;76.24;99609.16;1089765;39;20728;-81
2021/09/16 01:43:34;;;;;;;5.50;4.18;;;;;;;19.68;76.60;99613.34;1087753;54;20031;-84
2021/09/16 01:44:36;;;;;;;5.53;3.72;;;;;;;19.79;76.12;99602.63;1087768;54;20134;-81
2021/09/16 01:45:40;;;;;;;5.38;3.55;;;;;;;19.93;75.38;99608.84;1088127;39;20575;-83
2021/09/16 01:46:43;;;;;;;7.20;4.40;;;;;;;19.84;75.74;99609.31;1087371;54;20042;-82
2021/09/16 01:47:48;;;;;;;7.57;5.55;;;;;;;19.74;76.01;99616.00;1087451;54;20042;-82
2021/09/16 01:48:53;;;;;;;7.10;4.68;;;;;;;19.91;75.76;99605.53;1087764;54;20883;-83
2021/09/16 01:49:54;;;;;;;5.88;3.70;;;;;;;20.01;75.28;99605.06;1087763;54;20689;-82
2021/09/16 01:50:58;;;;;;;6.72;4.07;;;;;;;20.08;75.00;99605.84;1087752;54;20030;-81
2021/09/16 01:52:00;;;;;;;4.65;3.22;;;;;;;20.09;75.05;99612.94;1087621;54;20030;-82
2021/09/16 01:53:04;;;;;;;5.80;3.90;;;;;;;20.02;75.12;99609.44;1087773;54;20065;-83
2021/09/16 01:54:06;;;;;;;6.25;3.80;;;;;;;20.07;75.20;99600.66;1087733;54;21067;-81
2021/09/16 01:55:13;;;;;;;5.80;4.13;;;;;;;20.09;74.84;99601.25;1087780;54;20053;-81
2021/09/16 01:56:15;;;;;;;6.35;5.03;;;;;;;19.81;75.69;99605.13;1087785;54;20041;-82
2021/09/16 01:57:19;;;;;;;5.00;3.80;;;;;;;20.05;75.32;99605.47;1087580;54;20030;-84
2021/09/16 01:58:20;;;;;;;6.65;4.50;;;;;;;19.82;75.89;99606.78;1087773;54;20034;-81
2021/09/16 01:59:24;;;;;;;8.38;4.88;;;;;;;19.72;76.18;99601.00;1087779;54;20035;-82
2021/09/16 02:00:26;;;;;;;5.63;3.95;;;;;;;19.75;76.11;99598.69;1087660;54;20786;-82
2021/09/16 02:01:30;;;;;;;6.15;4.22;;;;;;;19.61;77.11;99599.81;1087715;54;20030;-80
2021/09/16 02:02:32;;;;;;;5.65;3.88;;;;;;;19.60;76.90;99598.13;1087756;54;20037;-82
2021/09/16 02:03:36;;;;;;;5.55;3.63;;;;;;;19.52;77.38;99596.50;1088478;46;20054;-83
2021/09/16 02:04:37;;;;;;;5.28;3.38;;;;;;;19.57;77.24;99599.41;1087797;54;20038;-84
2021/09/16 02:05:41;;;;;;;5.07;3.47;;;;;;;19.68;77.11;99600.59;1087737;54;20694;-82
2021/09/16 02:06:43;;;;;;;4.60;3.40;;;;;;;19.80;76.62;99601.59;1087641;54;20042;-82
2021/09/16 02:07:47;;;;;;;5.05;3.17;;;;;;;19.89;76.50;99587.81;1087821;54;20776;-83
2021/09/16 02:08:49;;;;;;;6.68;3.15;;;;;;;19.96;76.34;99594.03;1087704;54;20041;-83
2021/09/16 02:09:53;;;;;;;5.45;3.08;;;;;;;20.00;76.00;99591.69;1087713;54;20034;-83
2021/09/16 02:10:57;;;;;;;4.47;2.83;;;;;;;20.02;76.07;99595.88;1087790;54;20065;-84
2021/09/16 02:12:02;;;;;;;5.53;3.33;;;;;;;20.07;75.66;99596.06;1087670;54;20865;-81
2021/09/16 02:13:03;;;;;;;5.93;2.90;;;;;;;20.08;75.75;99589.56;1090467;39;20307;-82
2021/09/16 02:14:07;;;;;;;5.28;3.53;;;;;;;19.93;76.47;99586.34;1087689;54;20031;-83
2021/09/16 02:15:10;;;;;;;4.78;2.90;;;;;;;20.03;75.73;99583.97;1087765;54;20034;-82
2021/09/16 02:16:14;;;;;;;4.35;2.70;;;;;;;20.09;75.83;99585.81;1087829;54;20053;-82
2021/09/16 02:17:15;;;;;;;4.32;2.47;;;;;;;20.08;75.38;99584.16;1087576;54;20035;-82
2021/09/16 02:18:19;;;;;;;4.60;2.85;;;;;;;20.09;75.46;99590.41;1087516;54;20034;-83
2021/09/16 02:19:21;;;;;;;4.63;2.30;;;;;;;20.16;75.24;99587.66;1087620;54;21033;-83
2021/09/16 02:20:25;;;;;;;5.05;2.38;;;;;;;20.16;75.01;99591.22;1087755;54;20030;-83
2021/09/16 02:21:27;;;;;;;4.25;2.50;;;;;;;20.21;75.24;99583.22;1087682;54;20037;-83
2021/09/16 02:22:31;;;;;;;4.22;2.60;;;;;;;20.23;75.06;99580.28;1087658;54;20050;-82
2021/09/16 02:23:33;;;;;;;8.18;2.75;;;;;;;20.16;75.42;99579.50;1087729;54;20058;-83
2021/09/16 02:24:37;;;;;;;4.60;2.42;;;;;;;20.18;75.28;99583.66;1087786;54;20037;-84
2021/09/16 02:25:38;;;;;;;4.20;2.35;;;;;;;20.19;75.31;99579.06;1087818;54;20046;-84
2021/09/16 02:26:45;;;;;;;6.18;2.75;;;;;;;20.13;75.50;99572.63;1087783;54;20041;-83
2021/09/16 02:27:47;;;;;;;5.68;2.58;;;;;;;20.08;75.40;99572.44;1087681;54;20666;-85
2021/09/16 02:28:51;;;;;;;5.93;2.22;;;;;;;20.08;75.58;99576.00;1087826;46;20054;-82
2021/09/16 02:29:52;;;;;;;4.80;2.53;;;;;;;20.17;75.33;99573.03;1087770;54;20383;-84
2021/09/16 02:30:56;;;;;;;4.47;2.40;;;;;;;20.04;75.75;99572.06;1087661;54;20034;-83
2021/09/16 02:31:58;;;;;;;3.90;2.45;;;;;;;20.12;75.49;99567.44;1087741;54;20038;-83
2021/09/16 02:33:04;;;;;;;4.85;2.72;;;;;;;20.14;75.25;99576.16;1087737;54;20074;-84
2021/09/16 02:34:06;;;;;;;4.05;2.50;;;;;;;20.12;75.43;99576.41;1087734;54;20038;-82
2021/09/16 02:35:12;;;;;;;4.20;2.40;;;;;;;20.12;75.52;99564.72;1087762;54;20034;-84
2021/09/16 02:36:13;;;;;;;3.75;2.42;;;;;;;20.15;75.13;99570.53;1087651;54;20041;-82
2021/09/16 02:37:17;;;;;;;4.38;2.45;;;;;;;20.20;75.08;99569.88;1087714;54;20035;-83
2021/09/16 02:38:19;;;;;;;3.92;2.30;;;;;;;20.26;75.11;99569.00;1087791;54;20733;-84
2021/09/16 02:39:23;;;;;;;3.90;2.28;;;;;;;20.28;74.97;99575.03;1087689;54;20034;-83
2021/09/16 02:40:30;;;;;;;4.32;2.45;;;;;;;20.27;74.99;99576.91;1087743;54;20063;-84
2021/09/16 02:41:34;;;;;;;3.72;2.13;;;;;;;20.13;75.09;99567.22;1088981;46;20057;-84
2021/09/16 02:42:38;;;;;;;4.35;2.30;;;;;;;19.99;76.05;99574.59;1087642;54;20037;-84
2021/09/16 02:43:43;;;;;;;5.35;2.58;;;;;;;19.85;76.39;99583.81;1087804;54;20022;-84
2021/09/16 02:44:44;;;;;;;4.28;2.20;;;;;;;19.91;76.11;99574.88;1087772;54;20023;-83
2021/09/16 02:45:49;;;;;;;4.30;2.30;;;;;;;19.92;75.97;99573.81;1088771;46;20040;-83
2021/09/16 02:46:50;;;;;;;3.95;2.38;;;;;;;20.05;75.56;99564.78;1087650;54;20030;-85
2021/09/16 02:47:54;;;;;;;3.88;2.25;;;;;;;20.13;75.27;99569.06;1087658;54;20030;-84
2021/09/16 02:48:56;;;;;;;3.88;2.22;;;;;;;20.19;74.71;99568.22;1087676;54;20045;-86
2021/09/16 02:50:00;;;;;;;4.30;2.38;;;;;;;20.20;74.65;99562.56;1087788;54;20031;-83
2021/09/16 02:51:05;;;;;;;3.55;1.80;;;;;;;20.23;74.62;99570.28;1087727;54;20034;-83
2021/09/16 02:52:07;;;;;;;3.30;1.88;;;;;;;20.27;74.40;99567.94;1087735;54;20030;-85
2021/09/16 02:53:11;;;;;;;3.75;2.20;;;;;;;20.33;74.28;99574.38;1087703;54;20014;-85
2021/09/16 02:54:12;;;;;;;4.00;2.00;;;;;;;20.33;74.39;99567.06;1089280;39;20673;-84
2021/09/16 02:55:18;;;;;;;4.00;2.10;;;;;;;20.35;74.27;99566.84;1087725;54;20041;-85
2021/09/16 02:56:20;;;;;;;4.07;2.03;;;;;;;20.33;74.04;99561.63;1087673;54;20039;-82
2021/09/16 02:57:24;;;;;;;3.80;1.92;;;;;;;20.33;73.94;99571.66;1087650;54;20041;-83
2021/09/16 02:58:28;;;;;;;3.65;1.63;;;;;;;20.36;74.16;99566.63;1087757;54;20038;-84
2021/09/16 02:59:32;;;;;;;3.80;1.63;;;;;;;20.34;74.11;99565.19;1087635;54;20035;-83
2021/09/16 03:00:34;;;;;;;3.85;2.03;;;;;;;20.29;74.16;99567.72;1087602;54;20034;-85
2021/09/16 03:01:38;;;;;;;3.90;2.65;;;;;;;20.10;75.09;99564.94;1087562;54;20038;-83
2021/09/16 03:02:40;;;;;;;5.85;3.13;;;;;;;20.04;75.21;99561.22;1090511;47;20041;-83
2021/09/16 03:03:44;;;;;;;4.72;3.35;;;;;;;19.92;75.72;99565.69;1087373;54;20030;-85
2021/09/16 03:04:45;;;;;;;6.25;3.33;;;;;;;19.95;75.68;99566.09;1087640;54;20041;-84
2021/09/16 03:05:50;;;;;;;5.30;2.85;;;;;;;20.12;74.85;99562.03;1087857;47;20030;-83
2021/09/16 03:06:51;;;;;;;5.28;3.00;;;;;;;20.17;74.94;99560.28;1087529;54;21254;-86
2021/09/16 03:07:55;;;;;;;5.82;2.70;;;;;;;20.07;74.74;99560.78;1087714;54;20031;-83
2021/09/16 03:08:57;;;;;;;5.05;3.20;;;;;;;19.93;75.49;99570.06;1087649;54;20065;-82
2021/09/16 03:10:01;;;;;;;5.20;3.30;;;;;;;19.88;75.56;99567.16;1089914;47;20041;-84
2021/09/16 03:11:02;;;;;;;4.70;3.00;;;;;;;20.05;75.32;99564.78;1087370;54;20907;-82
2021/09/16 03:12:07;;;;;;;5.00;3.60;;;;;;;19.98;75.44;99564.81;1090590;47;21231;-82
2021/09/16 03:13:09;;;;;;;5.03;3.13;;;;;;;20.03;74.94;99570.38;1087325;54;20034;-82
2021/09/16 03:14:16;;;;;;;5.45;3.10;;;;;;;20.10;74.86;99573.91;1087405;54;20037;-84
2021/09/16 03:15:17;;;;;;;5.63;2.80;;;;;;;20.15;74.84;99566.97;1087755;54;20038;-85
2021/09/16 03:16:21;;;;;;;4.45;2.90;;;;;;;20.03;74.97;99564.97;1087526;54;20041;-83
2021/09/16 03:17:23;;;;;;;5.75;3.13;;;;;;;20.06;75.24;99569.97;1089058;47;20041;-82
2021/09/16 03:18:28;;;;;;;5.45;2.90;;;;;;;20.10;75.06;99567.66;1087798;54;20010;-83
2021/09/16 03:19:29;;;;;;;4.60;2.70;;;;;;;20.08;74.72;99575.16;1087551;54;20023;-81
2021/09/16 03:20:33;;;;;;;5.22;2.60;;;;;;;20.14;74.54;99566.16;1087650;54;20037;-84
2021/09/16 03:21:35;;;;;;;6.13;2.83;;;;;;;20.07;74.72;99566.22;1087518;54;20046;-82
2021/09/16 03:22:39;;;;;;;4.30;2.75;;;;;;;20.12;74.72;99575.59;1087514;54;20030;-83
2021/09/16 03:23:41;;;;;;;4.00;2.40;;;;;;;20.17;74.49;99573.03;1087615;54;20096;-85
2021/09/16 03:24:45;;;;;;;4.80;2.50;;;;;;;20.20;74.52;99575.31;1093215;39;20668;-85
2021/09/16 03:25:47;;;;;;;4.38;2.15;;;;;;;20.16;74.37;99572.22;1087572;54;20031;-81
2021/09/16 03:26:51;;;;;;;4.65;2.72;;;;;;;20.19;74.55;99570.94;1087567;54;20065;-85
2021/09/16 03:27:52;;;;;;;4.22;2.30;;;;;;;20.13;74.95;99574.50;1087490;54;20037;-83
2021/09/16 03:28:56;;;;;;;4.13;2.40;;;;;;;20.14;75.22;99570.75;1087515;54;20031;-84
2021/09/16 03:30:01;;;;;;;3.35;2.00;;;;;;;20.13;74.93;99575.34;1087663;54;20050;-84
2021/09/16 03:31:05;;;;;;;4.65;2.70;;;;;;;20.01;75.53;99571.66;1088232;39;20676;-83
2021/09/16 03:32:07;;;;;;;4.53;2.42;;;;;;;19.93;75.72;99575.50;1087911;54;20098;-83
2021/09/16 03:33:11;;;;;;;5.20;2.38;;;;;;;19.92;75.82;99576.53;1088330;39;20583;-83
2021/09/16 03:34:13;;;;;;;4.28;2.22;;;;;;;19.82;76.20;99573.44;1087984;54;20034;-84
2021/09/16 03:35:17;;;;;;;6.47;2.95;;;;;;;19.77;76.61;99577.63;1088016;54;20030;-81
2021/09/16 03:36:21;;;;;;;5.75;2.60;;;;;;;19.84;76.21;99576.75;1090490;39;20593;-84
2021/09/16 03:37:22;;;;;;;4.72;2.90;;;;;;;19.73;76.36;99570.97;1087746;54;20062;-83
2021/09/16 03:38:27;;;;;;;4.22;2.70;;;;;;;19.77;76.22;99572.19;1087894;54;21098;-83
2021/09/16 03:39:28;;;;;;;4.85;2.70;;;;;;;19.71;76.54;99583.06;1087932;54;20042;-82
2021/09/16 03:40:33;;;;;;;5.28;2.60;;;;;;;19.75;76.56;99578.88;1088072;46;20018;-82
2021/09/16 03:41:34;;;;;;;5.18;2.83;;;;;;;19.71;76.85;99583.06;1087933;54;20031;-83
2021/09/16 03:42:38;;;;;;;6.22;2.70;;;;;;;19.67;76.98;99577.25;1087840;54;20753;-82
2021/09/16 03:43:40;;;;;;;5.60;2.85;;;;;;;19.66;76.72;99575.59;1089333;39;20649;-82
2021/09/16 03:44:44;;;;;;;4.88;2.70;;;;;;;19.69;76.89;99585.19;1087962;54;20034;-83
2021/09/16 03:45:48;;;;;;;4.85;2.67;;;;;;;19.74;76.60;99577.22;1088629;46;20053;-82
2021/09/16 03:46:53;;;;;;;6.47;2.70;;;;;;;19.72;76.77;99580.16;1087839;54;20099;-83
2021/09/16 03:47:54;;;;;;;4.25;2.63;;;;;;;19.72;76.88;99580.16;1087929;54;20057;-85
2021/09/16 03:48:59;;;;;;;5.85;2.53;;;;;;;19.71;77.02;99575.78;1087888;54;20034;-82
2021/09/16 03:50:00;;;;;;;4.85;2.55;;;;;;;19.69;76.90;99580.59;1087844;54;20981;-82
2021/09/16 03:51:04;;;;;;;4.97;2.90;;;;;;;19.67;77.14;99582.66;1087977;54;20027;-83
2021/09/16 03:52:07;;;;;;;5.20;2.80;;;;;;;19.57;77.63;99582.28;1087673;54;20034;-83
2021/09/16 03:53:11;;;;;;;5.25;2.58;;;;;;;19.60;77.64;99576.44;1087786;54;20053;-84
2021/09/16 03:54:13;;;;;;;4.30;2.78;;;;;;;19.57;77.66;99579.59;1087955;54;20034;-81
2021/09/16 03:55:17;;;;;;;4.68;2.75;;;;;;;19.62;77.41;99580.59;1087781;54;20036;-83
2021/09/16 03:56:19;;;;;;;6.03;3.13;;;;;;;19.62;77.40;99575.19;1087724;54;20039;-84
2021/09/16 03:57:23;;;;;;;5.35;2.60;;;;;;;19.67;77.26;99571.81;1088578;39;20419;-81
2021/09/16 03:58:24;;;;;;;4.68;2.70;;;;;;;19.68;77.38;99573.50;1087886;54;20035;-81
2021/09/16 03:59:29;;;;;;;4.57;2.58;;;;;;;19.75;77.17;99577.00;1087789;54;20702;-84
2021/09/16 04:00:30;;;;;;;4.50;2.67;;;;;;;19.83;77.11;99583.25;1088045;46;20701;-83
2021/09/16 04:01:37;;;;;;;4.65;2.85;;;;;;;19.87;76.66;99579.06;1087894;54;20034;-84
2021/09/16 04:02:39;;;;;;;4.07;2.35;;;;;;;19.92;76.91;99579.25;1087893;54;20705;-82
2021/09/16 04:03:43;;;;;;;3.47;2.10;;;;;;;19.91;76.86;99580.28;1087921;54;20077;-82
2021/09/16 04:04:47;;;;;;;3.60;2.22;;;;;;;19.88;77.09;99578.00;1087911;54;20045;-83
2021/09/16 04:05:48;;;;;;;3.83;2.33;;;;;;;19.90;76.92;99582.16;1088030;54;20041;-83
2021/09/16 04:06:53;;;;;;;5.15;2.20;;;;;;;19.96;76.85;99583.16;1087886;54;20023;-83
2021/09/16 04:07:54;;;;;;;3.85;2.25;;;;;;;19.93;76.71;99575.50;1087914;47;20793;-82
2021/09/16 04:08:58;;;;;;;5.55;2.35;;;;;;;19.95;76.94;99579.66;1090076;39;20575;-81
2021/09/16 04:10:00;;;;;;;3.85;2.40;;;;;;;19.93;77.15;99576.31;1087923;54;20709;-81
2021/09/16 04:11:04;;;;;;;5.00;2.72;;;;;;;19.86;77.37;99575.53;1087940;54;20038;-81
2021/09/16 04:12:07;;;;;;;4.80;2.90;;;;;;;19.91;77.46;99577.59;1087741;54;20035;-83
2021/09/16 04:13:11;;;;;;;4.88;2.30;;;;;;;19.92;77.55;99576.53;1087888;54;20014;-84
2021/09/16 04:14:12;;;;;;;5.28;2.78;;;;;;;19.91;77.48;99577.59;1087853;54;20037;-82
2021/09/16 04:15:16;;;;;;;4.18;2.17;;;;;;;19.91;77.29;99575.69;1087879;54;20034;-84
2021/09/16 04:16:18;;;;;;;3.92;2.60;;;;;;;19.92;77.32;99581.97;1087945;54;20046;-85
2021/09/16 04:17:25;;;;;;;4.88;2.38;;;;;;;19.92;77.50;99585.50;1087832;54;20031;-83
2021/09/16 04:18:26;;;;;;;4.53;2.60;;;;;;;19.91;77.51;99591.16;1087974;54;20023;-82
2021/09/16 04:19:31;;;;;;;5.22;2.50;;;;;;;19.79;77.57;99582.81;1092341;39;20258;-84
2021/09/16 04:20:32;;;;;;;5.03;2.72;;;;;;;19.66;78.29;99583.72;1087984;54;20045;-82
2021/09/16 04:21:36;;;;;;;4.85;2.70;;;;;;;19.65;78.40;99584.75;1090787;46;20053;-82
2021/09/16 04:22:38;;;;;;;5.47;3.03;;;;;;;19.58;78.16;99583.97;1087782;54;20038;-83
2021/09/16 04:23:42;;;;;;;4.25;2.70;;;;;;;19.68;78.10;99578.91;1092955;39;21200;-82
2021/09/16 04:24:44;;;;;;;4.53;2.67;;;;;;;19.77;77.90;99580.31;1087902;54;20034;-81
2021/09/16 04:25:48;;;;;;;5.50;2.70;;;;;;;19.79;77.81;99575.53;1087859;54;20082;-84
2021/09/16 04:26:50;;;;;;;4.68;2.80;;;;;;;19.85;77.77;99572.97;1087677;54;20030;-84
2021/09/16 04:27:54;;;;;;;3.92;2.20;;;;;;;19.91;77.47;99574.88;1087974;47;20030;-83
2021/09/16 04:28:55;;;;;;;6.00;2.58;;;;;;;19.75;78.20;99582.41;1087797;54;20037;-82
2021/09/16 04:29:59;;;;;;;4.97;2.95;;;;;;;19.57;78.72;99580.44;1087890;54;20037;-82
2021/09/16 04:31:01;;;;;;;6.03;2.97;;;;;;;19.57;78.64;99588.56;1087997;54;20066;-84
2021/09/16 04:32:08;;;;;;;4.57;2.80;;;;;;;19.61;78.53;99580.84;1087896;54;20034;-84
2021/09/16 04:33:15;;;;;;;6.80;3.10;;;;;;;19.64;77.94;99588.53;1087946;54;20035;-82
2021/09/16 04:34:16;;;;;;;4.88;2.80;;;;;;;19.46;78.64;99590.06;1087838;54;20038;-82
2021/09/16 04:35:23;;;;;;;5.10;3.20;;;;;;;19.43;78.89;99593.22;1088401;46;20034;-85
2021/09/16 04:36:25;;;;;;;4.30;2.70;;;;;;;19.49;78.49;99594.22;1087918;54;20053;-81
2021/09/16 04:37:29;;;;;;;5.18;2.80;;;;;;;19.54;78.41;99582.75;1089784;46;20041;-83
2021/09/16 04:39:34;;;;;;;5.82;2.75;;;;;;;19.45;78.61;99587.56;1088276;39;20657;-85
2021/09/16 04:40:35;;;;;;;3.90;2.50;;;;;;;19.41;78.71;99584.44;1088024;54;20023;-87
2021/09/16 04:42:46;;;;;;;4.43;2.50;;;;;;;19.41;78.42;99589.88;1088165;54;20041;-85
2021/09/16 04:43:47;;;;;;;5.47;3.05;;;;;;;19.29;78.69;99586.16;1087792;54;20833;-82
2021/09/16 04:44:52;;;;;;;5.68;2.75;;;;;;;19.29;78.91;99583.44;1087869;54;20044;-85
2021/09/16 04:45:53;;;;;;;6.63;3.33;;;;;;;19.29;79.14;99588.88;1087880;54;20035;-87
2021/09/16 04:46:57;;;;;;;5.45;2.80;;;;;;;19.29;79.06;99591.56;1087968;54;20753;-86
2021/09/16 04:47:59;;;;;;;5.00;3.00;;;;;;;19.28;79.32;99589.91;1087918;54;20025;-86
2021/09/16 04:49:06;;;;;;;6.75;3.00;;;;;;;19.43;78.80;99592.34;1087945;54;20031;-82
2021/09/16 04:50:09;;;;;;;4.55;3.13;;;;;;;19.53;78.39;99589.22;1087984;54;20057;-85
2021/09/16 04:51:15;;;;;;;5.18;3.20;;;;;;;19.60;78.05;99590.81;1087958;54;20039;-84
2021/09/16 04:52:16;;;;;;;4.70;3.25;;;;;;;19.66;77.84;99591.84;1087930;54;20035;-84
2021/09/16 04:53:21;;;;;;;6.28;3.75;;;;;;;19.52;78.34;99591.06;1087980;54;20031;-84
2021/09/16 04:54:22;;;;;;;5.63;3.30;;;;;;;19.64;78.07;99593.97;1087926;54;20053;-82
2021/09/16 04:55:27;;;;;;;4.45;3.05;;;;;;;19.71;78.03;99589.34;1087958;54;20010;-85
2021/09/16 04:56:28;;;;;;;4.20;2.78;;;;;;;19.71;77.81;99592.06;1087907;54;20044;-87
2021/09/16 04:57:32;;;;;;;4.35;2.72;;;;;;;19.75;77.55;99589.72;1087960;54;20039;-86
2021/09/16 04:58:34;;;;;;;5.63;2.50;;;;;;;19.79;77.34;99590.94;1087915;54;20041;-82
2021/09/16 04:59:38;;;;;;;4.38;2.70;;;;;;;19.83;77.37;99585.94;1087938;54;20121;-81
2021/09/16 05:00:40;;;;;;;4.88;2.53;;;;;;;19.82;77.29;99597.84;1089944;39;20563;-85
2021/09/16 05:01:44;;;;;;;4.47;2.60;;;;;;;19.86;77.08;99596.38;1087898;54;20037;-87
2021/09/16 05:02:45;;;;;;;4.45;2.38;;;;;;;19.85;77.09;99594.69;1087707;54;20038;-86
2021/09/16 05:03:49;;;;;;;4.20;2.55;;;;;;;19.85;77.04;99600.09;1087885;54;20030;-83
2021/09/16 05:04:54;;;;;;;4.10;2.45;;;;;;;19.83;77.21;99594.91;1087912;54;20038;-82
2021/09/16 05:05:58;;;;;;;4.18;2.60;;;;;;;19.88;77.03;99599.72;1087872;54;20041;-87
2021/09/16 05:06:59;;;;;;;4.35;2.58;;;;;;;19.82;77.35;99597.84;1087758;54;20034;-84
2021/09/16 05:08:03;;;;;;;4.68;2.60;;;;;;;19.85;77.05;99602.81;1087913;54;20681;-82
2021/09/16 05:09:05;;;;;;;4.35;2.40;;;;;;;19.90;77.31;99601.16;1087805;54;20042;-86
2021/09/16 05:10:11;;;;;;;4.13;2.55;;;;;;;19.84;77.16;99603.88;1088036;54;20030;-85
2021/09/16 05:11:16;;;;;;;5.38;2.58;;;;;;;19.85;76.92;99600.97;1087906;54;20042;-86
2021/09/16 05:12:17;;;;;;;4.15;2.45;;;;;;;19.87;77.16;99603.47;1088330;46;20034;-86
2021/09/16 05:13:21;;;;;;;4.82;2.35;;;;;;;19.90;76.80;99600.31;1091179;39;20689;-82
2021/09/16 05:14:23;;;;;;;4.18;2.35;;;;;;;19.93;76.85;99599.91;1087735;54;20289;-82
2021/09/16 05:15:27;;;;;;;4.15;2.50;;;;;;;19.97;76.89;99603.00;1087799;54;20035;-81
2021/09/16 05:16:29;;;;;;;3.75;2.20;;;;;;;19.99;76.51;99596.31;1087931;54;20057;-85
2021/09/16 05:17:34;;;;;;;4.20;2.50;;;;;;;19.95;76.65;99601.34;1088662;46;20034;-82
2021/09/16 05:18:35;;;;;;;4.00;2.40;;;;;;;19.98;76.73;99596.53;1087660;54;20030;-82
2021/09/16 05:19:39;;;;;;;4.22;2.40;;;;;;;20.01;76.66;99602.34;1087819;54;20057;-84
2021/09/16 05:20:43;;;;;;;4.05;2.42;;;;;;;20.00;76.49;99603.41;1087844;54;20034;-82
2021/09/16 05:21:48;;;;;;;3.97;2.25;;;;;;;19.94;77.09;99593.41;1087859;54;20031;-84
2021/09/16 05:22:49;;;;;;;3.90;2.25;;;;;;;20.00;76.83;99597.97;1089430;46;20030;-82
2021/09/16 05:23:54;;;;;;;5.03;2.53;;;;;;;20.01;76.89;99596.09;1087756;54;20039;-84
2021/09/16 05:24:55;;;;;;;3.78;2.17;;;;;;;20.01;76.51;99593.38;1087584;54;20045;-82
2021/09/16 05:25:59;;;;;;;4.85;2.72;;;;;;;19.86;77.33;99590.94;1087972;46;20026;-84
2021/09/16 05:27:01;;;;;;;4.57;3.10;;;;;;;19.72;77.63;99596.44;1087726;54;20065;-83
2021/09/16 05:28:05;;;;;;;6.53;4.22;;;;;;;19.61;78.26;99600.63;1087776;54;20112;-82
2021/09/16 05:29:07;;;;;;;7.82;4.70;;;;;;;19.57;78.51;99599.41;1087815;54;20034;-83
2021/09/16 05:30:12;;;;;;;10.00;5.00;;;;;;;19.49;79.11;99597.75;1087816;54;20026;-84
2021/09/16 05:31:14;;;;;;;5.82;4.13;;;;;;;19.55;78.70;99600.69;1087891;54;20030;-88
2021/09/16 05:32:18;;;;;;;6.15;4.05;;;;;;;19.60;78.53;99601.66;1087729;54;20030;-85
2021/09/16 05:33:19;;;;;;;8.40;3.72;;;;;;;19.67;78.34;99603.53;1092783;39;20598;-81
2021/09/16 05:34:24;;;;;;;6.53;3.88;;;;;;;19.50;78.78;99595.91;1087664;54;20042;-85
2021/09/16 05:35:25;;;;;;;6.40;4.60;;;;;;;19.39;79.30;99600.09;1088241;39;20236;-85
2021/09/16 05:36:32;;;;;;;7.88;4.15;;;;;;;19.36;79.24;99603.25;1087800;54;20030;-84
2021/09/16 05:37:34;;;;;;;4.70;3.10;;;;;;;19.49;79.15;99603.19;1087805;54;20034;-84
2021/09/16 05:38:38;;;;;;;4.90;3.28;;;;;;;19.30;79.74;99606.78;1087716;54;20054;-84
2021/09/16 05:39:39;;;;;;;6.05;3.55;;;;;;;19.39;79.31;99607.41;1087655;54;20045;-84
2021/09/16 05:40:43;;;;;;;7.15;3.40;;;;;;;19.33;79.27;99607.19;1087773;54;20035;-85
2021/09/16 05:41:45;;;;;;;6.10;3.55;;;;;;;19.36;79.55;99608.66;1087614;54;20044;-84
2021/09/16 05:42:49;;;;;;;7.25;3.25;;;;;;;19.30;79.68;99604.94;1088573;46;20014;-85
2021/09/16 05:43:54;;;;;;;5.43;3.60;;;;;;;19.16;80.19;99609.56;1087830;54;20046;-82
2021/09/16 05:44:58;;;;;;;4.97;3.30;;;;;;;19.21;80.12;99614.34;1087836;54;20031;-84
2021/09/16 05:46:00;;;;;;;7.40;3.63;;;;;;;19.16;80.16;99614.13;1087738;54;20034;-85
2021/09/16 05:47:04;;;;;;;6.20;3.17;;;;;;;19.15;80.27;99610.59;1087797;54;20030;-84
2021/09/16 05:48:05;;;;;;;5.22;3.15;;;;;;;19.30;79.84;99613.06;1087703;54;20042;-84
2021/09/16 05:49:10;;;;;;;6.28;3.17;;;;;;;19.31;79.56;99613.88;1087736;54;20034;-84
2021/09/16 05:50:13;;;;;;;4.95;3.15;;;;;;;19.33;79.46;99618.03;1088754;46;20050;-85
2021/09/16 05:51:17;;;;;;;5.20;3.00;;;;;;;19.35;79.43;99608.84;1087872;54;20844;-82
2021/09/16 05:52:21;;;;;;;5.13;3.42;;;;;;;19.21;79.91;99610.78;1089737;39;20602;-82
2021/09/16 05:53:26;;;;;;;4.30;3.03;;;;;;;19.22;79.90;99615.16;1087535;54;20054;-84
2021/09/16 05:54:28;;;;;;;6.63;3.22;;;;;;;19.14;80.34;99621.63;1087894;54;20031;-86
2021/09/16 05:55:32;;;;;;;5.57;3.15;;;;;;;19.22;80.40;99617.84;1087870;54;20053;-86
2021/09/16 05:56:35;;;;;;;6.82;3.50;;;;;;;19.16;80.71;99619.53;1087997;54;20034;-85
2021/09/16 05:57:41;;;;;;;6.40;3.45;;;;;;;19.17;81.10;99619.34;1087831;54;20796;-84
2021/09/16 05:58:43;;;;;;;6.15;3.45;;;;;;;19.15;81.12;99618.72;1088044;54;20042;-87
2021/09/16 05:59:49;;;;;;;6.88;3.20;;;;;;;19.26;80.98;99619.13;1088228;54;20106;-90
2021/09/16 06:00:50;;;;;;;5.65;3.17;;;;;;;19.24;80.71;99621.19;1087873;54;20039;-84
2021/09/16 06:01:54;;;;;;;6.20;3.88;;;;;;;19.08;81.59;99620.59;1087934;54;20030;-83
2021/09/16 06:02:56;;;;;;;9.30;4.50;;;;;;;18.95;82.70;99626.84;1087628;54;20035;-84
2021/09/16 06:04:00;;;;;;;8.40;4.40;;;;;;;18.93;82.95;99628.13;1087821;54;20050;-84
2021/09/16 06:05:02;;;;;;;6.68;4.00;;;;;;;19.00;82.60;99631.66;1087870;54;20022;-83
2021/09/16 06:06:06;;;;;;;6.75;3.50;;;;;;;19.16;81.87;99639.34;1087968;54;20030;-84
2021/09/16 06:07:08;;;;;;;6.63;3.80;;;;;;;19.23;81.66;99633.91;1087811;54;20038;-82
2021/09/16 06:08:14;;;;;;;5.72;3.47;;;;;;;19.27;81.30;99639.75;1087883;54;20034;-85
2021/09/16 06:09:16;;;;;;;8.07;4.30;;;;;;;19.07;82.05;99628.94;1087675;54;20031;-84